<?xml version="1.0" encoding="UTF-8" standalone="no" ?>
<gpx xmlns="http://www.topografix.com/GPX/1/1" xmlns:xsi="http://www.w3.org/2001/XMLSchema-instance" xsi:schemaLocation="http://www.topografix.com/GPX/1/1 http://www.topografix.com/GPX/1/1/gpx.xsd" version="1.1" creator="VisuGPX - https://www.visugpx.com">
  <metadata>
    <name>Mervent_Tour_orbie_6-20km</name>
    <desc><![CDATA[gnerando idor:7850096_8031708]]></desc>
  </metadata>
  <trk>
    <name><![CDATA[OrbrieBalingue_6km-7850096]]></name>
    <extensions>
      <line xmlns="http://www.topografix.com/GPX/gpx_style/0/2">
        <color>00FF00</color>
        <width>4</width>
      </line>
    </extensions>
    <trkseg>
      <trkpt lat="46.50731" lon="-0.76089">
        <ele>95</ele>
        <time>2023-11-05T13:25:24Z</time>
      </trkpt>
      <trkpt lat="46.5141" lon="-0.76213">
        <ele>96</ele>
        <time>2023-11-05T13:40:37Z</time>
      </trkpt>
      <trkpt lat="46.51449" lon="-0.76132">
        <ele>94</ele>
        <time>2023-11-05T13:42:08Z</time>
      </trkpt>
      <trkpt lat="46.51594" lon="-0.76093">
        <ele>86</ele>
        <time>2023-11-05T13:45:25Z</time>
      </trkpt>
      <trkpt lat="46.51718" lon="-0.75986">
        <ele>75</ele>
        <time>2023-11-05T13:48:37Z</time>
      </trkpt>
      <trkpt lat="46.51833" lon="-0.76063">
        <ele>62</ele>
        <time>2023-11-05T13:51:26Z</time>
      </trkpt>
      <trkpt lat="46.52072" lon="-0.76029">
        <ele>47</ele>
        <time>2023-11-05T13:56:47Z</time>
      </trkpt>
      <trkpt lat="46.51948" lon="-0.75788">
        <ele>46</ele>
        <time>2023-11-05T14:01:23Z</time>
      </trkpt>
      <trkpt lat="46.51667" lon="-0.75745">
        <ele>48</ele>
        <time>2023-11-05T14:07:40Z</time>
      </trkpt>
      <trkpt lat="46.51526" lon="-0.75844">
        <ele>56</ele>
        <time>2023-11-05T14:11:09Z</time>
      </trkpt>
      <trkpt lat="46.51387" lon="-0.7578">
        <ele>63</ele>
        <time>2023-11-05T14:14:24Z</time>
      </trkpt>
      <trkpt lat="46.51372" lon="-0.75325">
        <ele>46</ele>
        <time>2023-11-05T14:21:22Z</time>
      </trkpt>
      <trkpt lat="46.51177" lon="-0.75445">
        <ele>55</ele>
        <time>2023-11-05T14:26:05Z</time>
      </trkpt>
      <trkpt lat="46.51009" lon="-0.75376">
        <ele>59</ele>
        <time>2023-11-05T14:29:58Z</time>
      </trkpt>
      <trkpt lat="46.50908" lon="-0.75226">
        <ele>62</ele>
        <time>2023-11-05T14:33:10Z</time>
      </trkpt>
      <trkpt lat="46.50899" lon="-0.75054">
        <ele>55</ele>
        <time>2023-11-05T14:35:49Z</time>
      </trkpt>
      <trkpt lat="46.50926" lon="-0.74883">
        <ele>47</ele>
        <time>2023-11-05T14:38:30Z</time>
      </trkpt>
      <trkpt lat="46.50654" lon="-0.7493">
        <ele>57</ele>
        <time>2023-11-05T14:44:35Z</time>
      </trkpt>
      <trkpt lat="46.50465" lon="-0.74908">
        <ele>63</ele>
        <time>2023-11-05T14:48:48Z</time>
      </trkpt>
      <trkpt lat="46.50356" lon="-0.74685">
        <ele>48</ele>
        <time>2023-11-05T14:53:00Z</time>
      </trkpt>
      <trkpt lat="46.50264" lon="-0.74797">
        <ele>54</ele>
        <time>2023-11-05T14:55:40Z</time>
      </trkpt>
      <trkpt lat="46.50258" lon="-0.75016">
        <ele>65</ele>
        <time>2023-11-05T14:59:01Z</time>
      </trkpt>
      <trkpt lat="46.50297" lon="-0.75054">
        <ele>74</ele>
        <time>2023-11-05T15:00:04Z</time>
      </trkpt>
      <trkpt lat="46.50356" lon="-0.76076">
        <ele>92</ele>
        <time>2023-11-05T15:15:46Z</time>
      </trkpt>
      <trkpt lat="46.50456" lon="-0.76046">
        <ele>97</ele>
        <time>2023-11-05T15:18:02Z</time>
      </trkpt>
      <trkpt lat="46.50737" lon="-0.76084">
        <ele>95</ele>
        <time>2023-11-05T15:24:19Z</time>
      </trkpt>
    </trkseg>
  </trk>
</gpx>